x

9435380 - South Beach, Or (sbeo3) Weather Station

9:54am - Fri 29th Jul 2016 All times are PDT. -7 hours from GMT.

  • Wind
    13mph, 17mph gusts
  • Sea Temp 48°f
  • Air Temp 60°f
  • Sea Pressure 1016.3mb
  • 9435380 - South Beach, Or
  • 9435380 - South Beach, Or

More Historic Weather Station data

Upgrade to MSW Pro to gain access to the past 30 days of data for over 8000 Wavebouys and Weather Stations around the globe.

Join Pro

Comparision Forecast

View Surf forecast
   
Fri 07/29 9:54am 13 17 mph 1016.3mb 48f 60f
9:48am 10 15 mph 1016.4mb 48f 61f
9:42am 10 17 mph 1016.4mb 48f 60f
9:36am 11 16 mph 1016.4mb 48f 60f
9:30am 6 16 mph 1016.5mb 48f 60f
9:24am 7 15 mph 1016.6mb 48f 59f
9:18am 2 13 mph 1016.6mb 48f 58f
9:12am 10 15 mph 1016.5mb 48f 59f
9:06am 3 8 mph 1016.5mb 48f 59f
9:00am 3 6 mph 1016.5mb 48f 59f
8:54am 3 6 mph 1016.5mb 49f 59f
8:48am  -  3 mph 1016.5mb 49f 59f
8:42am  -  2 mph 1016.5mb 49f 58f
8:36am 1 2 mph 1016.6mb 49f 58f
8:30am  -  3 mph 1016.6mb 49f 58f
8:24am 3
mph
1016.6mb 49f 58f
8:18am 2
mph
1016.5mb 49f 57f
8:12am  -  1 mph 1016.6mb 50f 57f
8:06am 1 2 mph 1016.5mb 50f 57f
8:00am  -  2 mph 1016.6mb 50f 57f
7:54am 2 3 mph 1016.6mb 51f 56f
7:48am 3 5 mph 1016.6mb 51f 56f
7:42am 3
mph
1016.5mb 51f 56f
7:36am 2
mph
1016.5mb 52f 56f
7:30am  -  2 mph 1016.5mb 53f 56f
7:24am  -  1 mph 1016.5mb 53f 56f
7:18am  -  1 mph 1016.4mb 54f 56f
7:12am  -  mph 1016.4mb 55f 56f
7:06am  -  1 mph 1016.4mb 55f 56f
7:00am  -  mph 1016.5mb 55f 56f
6:54am  -  1 mph 1016.6mb 55f 56f
6:48am  -  1 mph 1016.6mb 56f 56f
6:42am  -  1 mph 1016.5mb 56f 56f
6:36am 1
mph
1016.5mb 56f 56f
6:30am  -  1 mph 1016.5mb 56f 56f
6:24am  -  2 mph 1016.5mb 57f 56f
6:18am 2
mph
1016.5mb 58f 55f
6:12am 1 2 mph 1016.5mb 58f 56f
6:06am  -  1 mph 1016.4mb 58f 56f
6:00am  -  mph 1016.5mb 58f 56f
5:54am  -  1 mph 1016.5mb 58f 56f
5:48am 1
mph
1016.5mb 59f 56f
5:42am  -  1 mph 1016.5mb 59f 56f
5:36am  -  1 mph 1016.4mb 59f 56f
5:30am  -  1 mph 1016.5mb 59f 56f
5:24am 1 2 mph 1016.5mb 59f 55f
5:18am 2 3 mph 1016.5mb 59f 55f
5:12am 3
mph
1016.4mb 59f 55f
5:06am 2 3 mph 1016.4mb 59f 56f
5:00am 1 2 mph 1016.5mb 59f 55f
4:54am 1 2 mph 1016.5mb 59f 56f
4:48am  -  1 mph 1016.5mb 59f 56f
4:42am 1 2 mph 1016.5mb 59f 56f
4:36am 1 2 mph 1016.4mb 59f 56f
4:30am 1 2 mph 1016.4mb 59f 55f
4:24am  -  1 mph 1016.5mb 59f 56f
4:18am  -  1 mph 1016.5mb 60f 55f
4:12am 1 2 mph 1016.5mb 60f 55f
4:06am 1 2 mph 1016.5mb 60f 55f
4:00am  -  2 mph 1016.6mb 60f 55f
3:54am  -  2 mph 1016.6mb 60f 55f
3:48am  -  2 mph 1016.5mb 60f 55f
3:42am  -  mph 1016.6mb 60f 55f
3:36am  -  mph 1016.6mb 60f 55f
3:30am  -  2 mph 1016.6mb 59f 55f
3:24am  -  1 mph 1016.6mb 59f 55f
3:18am  -  2 mph 1016.6mb 59f 55f
3:12am 2 3 mph 1016.6mb 59f 55f
3:06am 2 3 mph 1016.6mb 59f 55f
3:00am 2
mph
1016.7mb 59f 55f
2:54am 2
mph
1016.7mb 58f 55f
2:48am 2 3 mph 1016.7mb 58f 55f
2:42am 3 5 mph 1016.8mb 58f 55f
2:36am 2 3 mph 1016.8mb 58f 55f
2:30am 2 3 mph 1016.8mb 58f 55f
2:24am 2 3 mph 1016.8mb 57f 55f
2:18am 1 3 mph 1016.8mb 57f 55f
2:12am 3
mph
1016.8mb 56f 55f
2:06am  -  1 mph 1016.8mb 55f 55f
2:00am  -  2 mph 1016.9mb 55f 56f
1:54am  -  1 mph 1016.9mb 55f 56f
1:48am 2
mph
1016.8mb 54f 56f
1:42am 2
mph
1016.9mb 53f 56f
1:36am 2 3 mph 1016.9mb 53f 56f
1:30am 2
mph
1016.9mb 53f 56f
1:24am 2 3 mph 1017mb 53f 56f
1:18am 2 3 mph 1017mb 53f 56f
1:12am 3
mph
1016.9mb 53f 56f
1:06am 2
mph
1016.9mb 53f 56f
1:00am  -  1 mph 1016.9mb 52f 56f
12:54am  -  3 mph 1016.9mb 52f 56f
12:48am 1 5 mph 1016.9mb 52f 56f
12:42am 5 8 mph 1016.9mb 52f 56f
12:36am 2 3 mph 1017mb 52f 56f
12:30am 2 7 mph 1016.9mb 52f 56f
12:24am 6 9 mph 1016.9mb 52f 56f
12:18am 6 9 mph 1016.9mb 53f 56f
12:12am 7 8 mph 1016.9mb 53f 56f
12:06am 2 5 mph 1016.9mb 54f 56f
12:00am 2 5 mph 1016.8mb 54f 56f
Thu 07/28 11:54pm 2 6 mph 1016.8mb 54f 56f
11:48pm 2 6 mph 1016.8mb 54f -
11:42pm 3 8 mph 1016.7mb 54f -
11:36pm 3 8 mph 1016.8mb 54f -
11:30pm 5 8 mph 1016.8mb 54f 56f
11:24pm 3 7 mph 1016.8mb 54f 56f
11:18pm 3 6 mph 1016.9mb 54f 56f
11:12pm 2 6 mph 1016.9mb 53f 56f
11:06pm 3 6 mph 1016.9mb 53f 56f
11:00pm 3 5 mph 1016.9mb 53f 57f
10:54pm 2 6 mph 1016.9mb 53f 57f
10:48pm 2 6 mph 1016.9mb 52f -
10:42pm 2 5 mph 1016.9mb 51f -
10:36pm 5 7 mph 1016.9mb 51f -
10:30pm 6 8 mph 1016.8mb 50f 57f
10:24pm 6 7 mph 1016.8mb 50f 57f
10:18pm 6 8 mph 1016.8mb 49f 57f
10:12pm 7 9 mph 1016.8mb 49f 57f
10:06pm 7 9 mph 1016.8mb 49f 57f
10:00pm 7 10 mph 1016.8mb 49f 57f
9:54pm 6 10 mph 1016.7mb 49f 57f
9:48pm 7 9 mph 1016.7mb 49f 57f
9:42pm 7 11 mph 1016.7mb 49f 57f
9:36pm 8 10 mph 1016.6mb 49f 57f
9:30pm 7 10 mph 1016.6mb 49f 57f
9:24pm 8 9 mph 1016.6mb 49f 58f
9:18pm 7 9 mph 1016.5mb 49f 58f
9:12pm 6 8 mph 1016.5mb 49f 58f
9:06pm 6 11 mph 1016.4mb 49f 58f
9:00pm 9 14 mph 1016.4mb 49f 58f
8:54pm 9 14 mph 1016.4mb 49f 58f
8:48pm 9 14 mph 1016.4mb 49f 58f
8:42pm 10 15 mph 1016.4mb 49f 58f
8:36pm 10 16 mph 1016.4mb 49f 58f
8:30pm 10 20 mph 1016.3mb 49f 58f
8:24pm 11 18 mph 1016.3mb 49f 58f
8:18pm  -  mph 1016.2mb 49f -
8:12pm  -  mph 1016.2mb 49f -
8:06pm  -  mph 1016.2mb 49f -
8:00pm 10 16 mph - 49f -
7:54pm 10 14 mph - 49f -
7:48pm 8 16 mph 1016.2mb 49f -
7:42pm 10 20 mph 1016.2mb 49f -
7:36pm 11 17 mph 1016.2mb 49f -
7:30pm 14 21 mph - - -
7:24pm 14 22 mph - - -
7:18pm  -  mph - 49f 60f
7:12pm  -  mph - 49f 60f
7:06pm  -  mph - 49f 61f
7:00pm  -  mph 1016.2mb - -
6:54pm  -  mph 1016.2mb - -
6:48pm 13 21 mph 1016.2mb 50f -
6:42pm 13 22 mph 1016.3mb 50f -
6:36pm 11 20 mph 1016.3mb 50f -
6:30pm 11 25 mph 1016.3mb - -
6:24pm 9 17 mph 1016.4mb - -
6:18pm 9 23 mph - 50f -
6:12pm 11 20 mph - 50f -
6:06pm 16 26 mph - 50f -
6:00pm  -  mph - 50f 61f
5:54pm  -  mph - 50f 61f
5:48pm 16 24 mph 1016.5mb 50f -
5:42pm 17 28 mph 1016.6mb 50f -
5:36pm 22 29 mph 1016.6mb 51f -
5:30pm 20 26 mph 1016.6mb 51f -
5:24pm 17 26 mph 1016.6mb 51f -
5:18pm 17 28 mph 1016.7mb 51f -
5:12pm 17 23 mph 1016.8mb 51f -
5:06pm 16 25 mph 1017mb 51f -
5:00pm  -  mph - 51f 61f
4:54pm  -  mph - 52f 61f
4:48pm 17 25 mph 1017mb - -
4:42pm 17 28 mph 1017mb - -
4:36pm 16 26 mph 1017mb - -
4:30pm 20 26 mph - - -
4:24pm 20 26 mph - - -
4:18pm 21 30 mph - 55f -
4:12pm 21 29 mph - 55f -
4:06pm 17 26 mph - 55f -
4:00pm  -  mph - 56f -
3:54pm  -  mph - 56f -
3:48pm  -  mph - 56f -
3:42pm  -  mph - 56f -
3:36pm  -  mph - 56f -
3:30pm 18 31 mph 1017.4mb 56f -
3:24pm 18 29 mph 1017.4mb 56f -
3:18pm 17 29 mph 1017.5mb 56f 60f
3:12pm 17 25 mph 1017.6mb 56f 60f
3:06pm 15 24 mph 1017.6mb 56f 61f
3:00pm 17 26 mph 1017.6mb 56f -
2:54pm 13 22 mph 1017.7mb 56f -
2:48pm 15 25 mph - 56f 61f
2:42pm 14 23 mph - 56f 61f
2:36pm 13 18 mph - 56f 61f
2:30pm 13 20 mph 1017.8mb 56f 61f
2:24pm 15 24 mph 1017.9mb 56f 61f
2:18pm 17 24 mph 1017.9mb 56f 61f
2:12pm 16 24 mph 1018mb 56f 61f
2:06pm 15 22 mph 1018mb 56f 61f
2:00pm 16 25 mph 1018.1mb 55f 61f
1:54pm 15 23 mph 1018.2mb 56f 61f
1:48pm 17 24 mph 1018.2mb 55f 61f
1:42pm 14 22 mph 1018.3mb 55f 60f
1:36pm 13 23 mph 1018.3mb 54f 60f
1:30pm 17 23 mph 1018.4mb 53f 60f
1:24pm 17 22 mph 1018.4mb 53f 60f
1:18pm 15 25 mph 1018.5mb 53f 60f
1:12pm 20 25 mph 1018.5mb 53f 60f
1:06pm 21 24 mph 1018.6mb 53f 60f
1:00pm 21 25 mph 1018.7mb 53f 60f
12:54pm 16 23 mph 1018.6mb 53f 60f
12:48pm 17 26 mph 1018.7mb 53f 60f
12:42pm 18 23 mph 1018.8mb 53f 60f
12:36pm 15 22 mph 1018.7mb 52f 60f
12:30pm 15 23 mph 1018.8mb 52f 60f
12:24pm 18 24 mph 1018.8mb 53f 60f
12:18pm 17 24 mph 1018.8mb 52f 60f
12:12pm 17 22 mph 1018.8mb 52f 60f
12:06pm 17 25 mph 1018.8mb 53f 60f
12:00pm 14 21 mph 1018.9mb 53f 60f
11:54am 14 22 mph 1018.9mb 53f 60f
11:48am 15 22 mph 1019mb 53f 60f
11:42am 14 21 mph 1019mb 53f 60f
11:36am 11 21 mph 1019mb 52f 60f
11:30am 13 21 mph 1019mb 50f 60f
11:24am 14 22 mph 1019mb 50f 59f
11:18am 14 22 mph 1019mb 50f 59f
11:12am 11 20 mph 1019.1mb 50f 59f
11:06am 14 20 mph 1019.1mb 50f 59f
11:00am 13 20 mph 1019.1mb 50f 59f
10:54am 11 17 mph 1019.1mb 50f 59f
10:48am 14 17 mph 1019.1mb 50f 58f
10:42am 13 18 mph 1019.1mb 50f 59f
10:36am 9 16 mph 1019.1mb 50f 60f
10:30am 9 17 mph 1019.1mb 50f 60f
10:24am 10 16 mph 1019.1mb 50f 60f
10:18am 10 15 mph 1019.2mb 50f 60f
10:12am 10 16 mph 1019.2mb 50f 59f
10:06am 10 14 mph 1019.2mb 49f 59f
10:00am 9 14 mph 1019.3mb 49f 59f
9:54am 7 14 mph 1019.4mb 49f 59f
9:48am 8 13 mph 1019.4mb 49f 59f
9:42am 7 15 mph 1019.4mb 49f 59f
9:36am 9 14 mph 1019.4mb 49f 59f
9:30am 7 14 mph 1019.4mb 49f 59f
9:24am 6 13 mph 1019.4mb 49f 59f
9:18am 6 14 mph 1019.5mb 49f 58f
9:12am 7 14 mph 1019.5mb 49f 58f
9:06am 6 9 mph 1019.4mb 49f 59f
9:00am 2 8 mph 1019.4mb 49f 59f
8:54am 1 3 mph 1019.5mb 49f 60f
8:48am  -  5 mph 1019.5mb 49f 60f
8:42am 3 5 mph 1019.5mb 49f 59f
8:36am 2 3 mph 1019.6mb 49f 59f
8:30am 2 5 mph 1019.6mb 49f 59f
8:24am 5 8 mph 1019.6mb 49f 59f
8:18am 5 7 mph 1019.5mb 49f 60f
8:12am 5 10 mph 1019.5mb 49f 59f
8:06am 6 14 mph 1019.6mb 49f 59f
8:00am 5 7 mph 1019.6mb 49f 59f
7:54am 5 7 mph 1019.7mb 49f 58f
7:48am 1 9 mph 1019.7mb 49f 58f
7:42am 6 8 mph 1019.7mb 50f 58f
7:36am 5 7 mph 1019.7mb 50f 57f
7:30am 3 6 mph 1019.7mb 50f 57f
7:24am 5
mph
1019.7mb 50f 57f
7:18am 3 5 mph 1019.6mb 50f 57f
7:12am 2 3 mph 1019.7mb 51f 58f
7:06am 2 6 mph 1019.6mb 51f 58f
7:00am 6 10 mph 1019.6mb 51f 58f
6:54am 8 11 mph 1019.6mb 52f 58f
6:48am 5 7 mph 1019.6mb 52f 58f
6:42am 3 10 mph 1019.6mb 52f 57f
6:36am 3 7 mph 1019.6mb 52f 57f
6:30am 3 7 mph 1019.6mb 53f 57f
6:24am 5 7 mph 1019.6mb 53f 57f
6:18am 5 13 mph 1019.6mb 53f 57f
6:12am 6 11 mph 1019.6mb 54f 57f
6:06am 10 16 mph 1019.5mb 54f 57f
6:00am 6 10 mph 1019.5mb 55f 57f
5:54am 7 13 mph 1019.5mb 55f 57f
5:48am 3 13 mph 1019.5mb 55f 57f
5:42am 6 14 mph 1019.5mb 56f 57f
5:36am 3 9 mph 1019.5mb 56f 57f
5:30am 6 9 mph 1019.4mb 56f 57f
5:24am 6 9 mph 1019.4mb 56f 57f
5:18am 2 6 mph 1019.5mb 57f 56f
5:12am 1 2 mph 1019.4mb 57f 56f
5:06am 2
mph
1019.4mb 58f 56f
5:00am  -  6 mph 1019.4mb 58f 56f
4:54am 2 6 mph 1019.5mb 58f 56f
4:48am 1 3 mph 1019.4mb 58f 56f
4:42am 3 6 mph 1019.4mb 59f 56f
4:36am 3 6 mph 1019.4mb 59f 56f
4:30am 5 6 mph 1019.3mb 59f 56f
4:24am 6 7 mph 1019.3mb 59f 56f
4:18am 6 7 mph 1019.3mb 59f 56f
4:12am 6 7 mph 1019.3mb 59f 56f
4:06am 6
mph
1019.4mb 59f 56f
4:00am 5 6 mph 1019.5mb 59f 56f
3:54am 5 7 mph 1019.5mb 59f 56f
3:48am 5 7 mph 1019.5mb 59f 56f
3:42am 6 8 mph 1019.4mb 59f 56f
3:36am 6 7 mph 1019.4mb 59f 56f
3:30am 5 7 mph 1019.4mb 59f 56f
3:24am 3 7 mph 1019.4mb 59f 56f
3:18am 5 6 mph 1019.4mb 59f 56f
3:12am 3 6 mph 1019.4mb 59f 56f
3:06am 5 6 mph 1019.4mb 59f 56f
3:00am 5 6 mph 1019.4mb 59f 56f
2:54am 5 6 mph 1019.3mb 59f 56f
2:48am 6 8 mph 1019.3mb 59f 56f
2:42am 6 7 mph 1019.3mb 59f 56f
2:36am 6 7 mph 1019.3mb 59f 56f
2:30am 6
mph
1019.2mb 59f 56f
2:24am 5 7 mph 1019.2mb 59f 56f
2:18am 3 6 mph 1019.2mb 59f 56f
2:12am 2 5 mph 1019.2mb 59f 56f
2:06am 2 5 mph 1019.2mb 59f 56f
2:00am 3 8 mph 1019.2mb 58f 56f
1:54am 6 7 mph 1019.2mb 58f 56f
1:48am 5 8 mph 1019.3mb 58f 56f
1:42am 6 9 mph 1019.4mb 58f 56f
1:36am 8 10 mph 1019.5mb 58f 56f
1:30am 7 10 mph 1019.5mb 58f 56f
1:24am 7 9 mph 1019.5mb 57f 56f
1:18am 8 9 mph 1019.6mb 57f 56f
1:12am 2 3 mph 1019.6mb 56f 57f
1:06am 2 5 mph 1019.5mb 56f 57f
1:00am 2 5 mph 1019.5mb 56f 57f
12:54am 2 5 mph 1019.6mb 55f 57f
12:48am 2 6 mph 1019.6mb 55f 57f
12:42am 5 8 mph 1019.7mb 54f 57f
12:36am 3 6 mph 1019.6mb 54f 58f
12:30am 3 7 mph 1019.7mb 53f 58f
12:24am 5 6 mph 1019.8mb 53f 57f
12:18am 3 7 mph 1019.8mb 53f 58f
12:12am 5 7 mph 1019.8mb 53f 57f
12:06am 6 8 mph 1019.8mb 53f 57f
12:00am 5 7 mph 1019.9mb 53f 57f
Wed 07/27 11:54pm 3 6 mph 1019.9mb 53f 57f
11:48pm 5 6 mph 1019.8mb 52f -
11:42pm 6
mph
1019.8mb 52f -
11:36pm 5 6 mph 1019.9mb 52f -
11:30pm 5 6 mph 1019.9mb 52f 57f
11:24pm 3 6 mph 1019.9mb 53f 57f
11:18pm 3 7 mph 1019.9mb 53f 57f
11:12pm 2 7 mph 1019.9mb 53f 57f
11:06pm 5 6 mph 1019.9mb 53f 57f
11:00pm 3 5 mph 1019.9mb 53f 57f
10:54pm 2 5 mph 1019.8mb 53f 57f
10:48pm 3 7 mph 1019.7mb 54f -
10:42pm 3 8 mph 1019.6mb 54f -
10:36pm 6 10 mph 1019.6mb 54f -
10:30pm 9 13 mph 1019.6mb 54f 57f
10:24pm 10 13 mph 1019.5mb 54f 57f
10:18pm 9 10 mph 1019.4mb 53f 57f
10:12pm 6 8 mph 1019.4mb 53f 57f
10:06pm 3 7 mph 1019.3mb 53f 57f
10:00pm 3 7 mph 1019.3mb 53f 58f
9:54pm 3 7 mph 1019.2mb 52f 58f
9:48pm 5 7 mph 1019.1mb 52f 58f
9:42pm 5 9 mph 1019.1mb 52f 58f
9:36pm 6 10 mph 1019mb 51f 58f
9:30pm 5 10 mph 1019mb 51f 58f
9:24pm 7 9 mph 1019mb 50f 58f
9:18pm 2 6 mph 1018.9mb 50f 58f
9:12pm 5 7 mph 1018.9mb 50f 58f
9:06pm 5 9 mph 1018.8mb 49f 58f
9:00pm 1 6 mph 1018.8mb 49f 58f
8:54pm 5 11 mph 1018.7mb 49f 58f
8:48pm 5 13 mph 1018.8mb 49f 58f
8:42pm 7 15 mph 1018.8mb 49f 58f
8:36pm 7 13 mph 1018.7mb 49f 58f
8:30pm 6 14 mph 1018.8mb 49f 58f
8:24pm 8 11 mph 1018.8mb 49f 58f
8:18pm 9 17 mph - 49f -
8:12pm 13 21 mph - 49f -
8:06pm 11 18 mph - 49f -
8:00pm 10 21 mph 1018.6mb 49f -
7:54pm 13 20 mph 1018.6mb 49f -
7:48pm 11 14 mph - - -
7:42pm 9 18 mph - - -
7:36pm 11 20 mph - - -
7:30pm 14 21 mph - - -
7:24pm 10 18 mph - - -
7:18pm 13 18 mph - 49f -
7:12pm 14 18 mph - 49f -
7:06pm 11 16 mph - 49f -
7:00pm  -  mph - 49f -
6:54pm  -  mph - 49f -
6:48pm 8 17 mph - - -
6:42pm 11 18 mph - - -
6:36pm 6 11 mph - - -
6:30pm  -  mph 1019mb - -
6:24pm  -  mph 1019mb - -
6:18pm 6 20 mph - - -
6:12pm 8 20 mph - - -
6:06pm 11 23 mph - - -
6:00pm  -  mph - 50f -
5:54pm  -  mph - 50f -
5:48pm 11 20 mph 1019.4mb - -
5:42pm 13 23 mph 1019.3mb - -
5:36pm 15 29 mph 1019.3mb - -
5:30pm  -  mph 1019.3mb 50f -
5:24pm  -  mph 1019.4mb 50f -
5:18pm  -  mph - 50f 60f
5:12pm  -  mph - 50f 60f
5:06pm  -  mph - 50f 60f
5:00pm  -  mph - 51f 60f
4:54pm  -  mph - 51f 61f
4:48pm  -  mph 1019.6mb - -
4:42pm  -  mph 1019.7mb - -
4:36pm  -  mph 1019.6mb - -
4:30pm 18 31 mph - 52f -
4:24pm 20 25 mph - 52f -
4:18pm  -  mph - 52f 62f
4:12pm  -  mph - 53f 62f
4:06pm  -  mph - 53f 62f
4:00pm  -  mph - 53f 62f
3:54pm  -  mph - 53f 62f
3:48pm  -  mph - 53f 62f
3:42pm  -  mph - 54f 62f
3:36pm  -  mph - 54f 62f
3:30pm 14 25 mph - - -
3:24pm 20 26 mph - - -
3:18pm 18 29 mph 1019.9mb 55f 62f
3:12pm 18 26 mph 1020mb 56f 62f
3:06pm 17 28 mph 1020mb 56f 62f
3:00pm  -  mph - 56f -
2:54pm  -  mph - 57f -
2:48pm 15 26 mph - 57f 62f
2:42pm 20 26 mph - 58f 62f
2:36pm 16 29 mph - 58f 62f
2:30pm 22 29 mph 1020.2mb 58f 62f
2:24pm 22 29 mph 1020.1mb 58f 62f
2:18pm 17 24 mph 1020.1mb 58f 62f
2:12pm 18 25 mph 1020.2mb 58f 62f
2:06pm 16 23 mph 1020.2mb 58f 62f
2:00pm 16 25 mph 1020.2mb 58f 62f
1:54pm 14 26 mph 1020.3mb 58f 62f
1:48pm 15 26 mph 1020.3mb 58f 62f
1:42pm 15 29 mph 1020.4mb 58f 62f
1:36pm 14 23 mph 1020.3mb 58f 62f
1:30pm 14 23 mph 1020.4mb 58f 62f
1:24pm 16 26 mph 1020.3mb 58f 62f
1:18pm 21 31 mph 1020.4mb 58f 61f
1:12pm 21 32 mph 1020.4mb 58f 61f
1:06pm 20 29 mph 1020.4mb 57f 60f
1:00pm 16 29 mph 1020.4mb 57f 61f
12:54pm 20 26 mph 1020.4mb 57f 61f
12:48pm 20 29 mph 1020.3mb 57f 61f
12:42pm 18 26 mph 1020.2mb 57f 61f
12:36pm 15 24 mph 1020.1mb 57f 62f
12:30pm 15 23 mph 1020mb 56f 62f
12:24pm 16 25 mph 1020mb 56f 61f
12:18pm 20 28 mph 1020.1mb 56f -
12:12pm 15 24 mph 1020.1mb 56f 62f
12:06pm 15 23 mph 1020.1mb 56f 62f
12:00pm 16 28 mph 1020.1mb 56f 61f
11:54am 16 23 mph 1020.1mb 56f 61f
11:48am 14 21 mph 1020.1mb 55f 62f
11:42am 16 23 mph 1020.1mb 55f 61f
11:36am 15 23 mph 1020.1mb 55f 62f
11:30am 15 23 mph 1020mb 55f 62f
11:24am 13 18 mph 1019.9mb 55f 62f
11:18am 14 20 mph 1020mb 55f 62f
11:12am 14 21 mph 1020mb 55f 62f
11:06am 11 18 mph 1020mb 55f 62f
11:00am 13 18 mph 1020.1mb 54f 62f
10:54am 7 13 mph 1020.2mb 53f 64f
10:48am 6 13 mph 1020.2mb 53f 63f
10:42am 5 10 mph 1020.2mb 52f 62f
10:36am 9 16 mph 1020.3mb 52f 62f
10:30am 9 14 mph 1020.5mb 52f 61f
10:24am 7 10 mph 1020.6mb 52f 61f
10:18am 7 13 mph 1020.8mb 51f 61f
10:12am 7 13 mph 1020.8mb 51f 60f
10:06am 7 13 mph 1020.9mb 51f 60f
10:00am 3 8 mph 1021.1mb 51f 60f
9:54am 7 14 mph 1021.1mb 51f 59f
9:48am 6 13 mph 1021.1mb 51f 59f
9:42am 8 15 mph 1021.2mb 51f 59f
9:36am 8 11 mph 1021.1mb 51f 59f
9:30am 6 10 mph 1021.1mb 51f 59f
9:24am 6 14 mph 1021.1mb 51f 58f
9:18am 9 15 mph 1021.1mb 51f 58f
9:12am 9 15 mph 1021mb 51f 58f
9:06am 10 20 mph 1020.9mb 51f 58f
9:00am 9 15 mph 1021mb 51f 58f
8:54am 8 10 mph 1021mb 51f 58f
8:48am 3 7 mph 1020.9mb 50f 58f
8:42am 3 6 mph 1020.7mb 50f 57f
8:36am 2 6 mph 1020.6mb 50f 57f
8:30am  -  3 mph 1020.7mb 50f 56f
8:24am 3 5 mph 1020.5mb 50f 56f
8:18am 3 5 mph 1020.5mb 50f 56f
8:12am 3
mph
1020.4mb 50f 56f
8:06am 3 6 mph 1020.3mb 50f 56f
8:00am 3 5 mph 1020.2mb 50f 56f
7:54am 3 5 mph 1020.1mb 50f 56f
7:48am 3 5 mph 1020mb 50f 56f
7:42am 2 3 mph 1020.1mb 50f 55f
7:36am 3 5 mph 1020.1mb 50f 56f
7:30am 1 2 mph 1020.1mb 50f 56f
7:24am 2
mph
1020mb 50f 56f
7:18am  -  1 mph 1020mb 50f 56f
7:12am 1 5 mph 1020mb 50f 56f
7:06am 5 6 mph 1019.9mb 50f 56f
7:00am 1 2 mph 1019.9mb 50f 56f
6:54am 1 3 mph 1019.9mb 50f 56f
6:48am 1 2 mph 1019.8mb 50f 56f
6:42am 2
mph
1019.8mb 50f 56f
6:36am 2
mph
1019.7mb 50f 56f
6:30am  -  1 mph 1019.7mb 50f 56f
6:24am  -  1 mph 1019.7mb 50f 56f
6:18am  -  2 mph 1019.7mb 51f 56f
6:12am 3 6 mph 1019.6mb 51f 56f
6:06am 5 8 mph 1019.5mb 51f 56f
6:00am 6 8 mph 1019.5mb 51f 56f
5:54am 7 11 mph 1019.5mb 51f 56f
5:48am 6 9 mph 1019.5mb 51f 56f
5:42am 6 9 mph 1019.5mb 52f 56f
5:36am 8 10 mph 1019.5mb 52f 56f
5:30am 7 10 mph 1019.5mb 53f 56f
5:24am 3 8 mph 1019.5mb 53f 56f
5:18am 7 8 mph 1019.5mb 54f 57f
5:12am 7 9 mph 1019.4mb 54f 57f
5:06am 8 10 mph 1019.5mb 55f 56f
5:00am 6 10 mph 1019.6mb 55f 57f
4:54am 5 7 mph 1019.5mb 55f 56f
4:48am 5 8 mph 1019.6mb 55f 57f
4:42am 7 9 mph 1019.6mb 56f 57f
4:36am 7 9 mph 1019.6mb 56f 56f
4:30am 1 3 mph 1019.5mb 56f 56f
4:24am 2 5 mph 1019.5mb 56f 55f
4:18am 2 3 mph 1019.5mb 56f 55f
4:12am 3 5 mph 1019.5mb 56f 55f
4:06am 3 6 mph 1019.5mb 57f 55f
4:00am 3 5 mph 1019.5mb 57f 55f
3:54am  -  3 mph 1019.6mb 57f 55f
3:48am 1 3 mph 1019.5mb 58f 55f
3:42am 2 3 mph 1019.5mb 58f 55f
3:36am 2 3 mph 1019.5mb 58f 55f
3:30am 2 5 mph 1019.4mb 58f 55f
3:24am 2 3 mph 1019.3mb 58f 55f
3:18am 1 2 mph 1019.3mb 58f 55f
3:12am  -  2 mph 1019.3mb 58f 55f
3:06am 1 2 mph 1019.3mb 58f 55f
3:00am  -  2 mph 1019.3mb 58f 55f
2:54am 1 3 mph 1019.3mb 58f 55f
2:48am 1 2 mph 1019.2mb 58f 55f
2:42am  -  1 mph 1019.2mb 58f 55f
2:36am 1 5 mph 1019.2mb 58f 55f
2:30am  -  3 mph 1019.2mb 58f 55f
2:24am 1 3 mph 1019.2mb 58f 55f
2:18am 2
mph
1019.2mb 58f 55f
2:12am  -  2 mph 1019.1mb 58f 55f
2:06am  -  3 mph 1019.1mb 58f 55f
2:00am 2 3 mph 1019.1mb 58f 56f
1:54am 3 5 mph 1019.2mb 58f 56f
1:48am 3 5 mph 1019.2mb 58f 56f
1:42am 3 5 mph 1019.2mb 58f 56f
1:36am 1 3 mph 1019.2mb 58f 56f
1:30am 1 3 mph 1019.3mb 58f 56f
1:24am 2 3 mph 1019.3mb 58f 57f
1:18am 2 3 mph 1019.4mb 58f 57f
1:12am 5 9 mph 1019.4mb 58f 58f
1:06am 6 9 mph 1019.4mb 58f 58f
1:00am 6 9 mph 1019.4mb 58f 58f
12:54am 5 8 mph 1019.6mb 58f 58f
12:48am 7 9 mph 1019.6mb 58f 59f
12:42am 5 8 mph 1019.7mb 57f 58f
12:36am 3 7 mph 1019.7mb 57f 58f
12:30am 2 3 mph 1019.7mb 57f 58f
12:24am  -  2 mph 1019.7mb 57f 58f
12:18am 2 5 mph 1019.7mb 56f 58f
12:12am 3 5 mph 1019.6mb 55f 59f
12:06am 2 6 mph 1019.6mb 55f 58f
12:00am 5 8 mph 1019.6mb 55f 58f
Tue 07/26 11:54pm 9 13 mph 1019.6mb 55f 59f
11:48pm 9 11 mph 1019.6mb 55f 59f
11:42pm 6 11 mph 1019.7mb 54f 59f
11:36pm 7 10 mph 1019.7mb 54f 59f
11:30pm 8 16 mph 1019.7mb 54f 59f
11:24pm 6 9 mph 1019.7mb 54f 59f
11:18pm 5 7 mph 1019.7mb 54f 58f
11:12pm 2 6 mph 1019.7mb 54f 58f
11:06pm 5 7 mph 1019.7mb 54f 58f
11:00pm 5 13 mph 1019.7mb 54f 58f
10:54pm 10 15 mph 1019.7mb 54f 59f
10:48pm 8 13 mph 1019.7mb 53f 59f
10:42pm 5 10 mph 1019.7mb 53f 59f
10:36pm 8 14 mph 1019.7mb 53f 59f
10:30pm 8 17 mph 1019.8mb 54f 59f
10:24pm 10 16 mph 1019.8mb 54f 59f
10:18pm 11 15 mph 1019.9mb 54f 59f
10:12pm 10 17 mph 1019.9mb 54f 59f
10:06pm 14 20 mph 1019.8mb 54f 59f
10:00pm 8 15 mph 1019.8mb 55f 59f
9:54pm 11 17 mph 1019.8mb 55f 59f
9:48pm 13 18 mph 1019.7mb 55f 59f
9:42pm 13 15 mph 1019.7mb 55f 59f
9:36pm 9 15 mph 1019.6mb 55f 59f
9:30pm 5 11 mph 1019.5mb 55f 58f
9:24pm 6 13 mph 1019.5mb 54f 59f
9:18pm 8 14 mph 1019.5mb 54f 59f
9:12pm 7 15 mph 1019.4mb 54f 59f
9:06pm 7 14 mph 1019.4mb 54f 59f
9:00pm 6 11 mph 1019.5mb 53f 59f
8:54pm 7 11 mph 1019.4mb 53f 59f
8:48pm 5 10 mph 1019.4mb 53f 59f
8:42pm 7 11 mph 1019.4mb 53f 59f
8:36pm 9 15 mph 1019.4mb 53f 59f
8:30pm 8 11 mph 1019.4mb 52f 59f
8:24pm 8 15 mph 1019.4mb 52f 59f
8:18pm 10 16 mph 1019.4mb 51f -
8:12pm 14 22 mph 1019.3mb 51f -
8:06pm 14 18 mph 1019.3mb 51f -
8:00pm 13 23 mph - 51f -
7:54pm 14 21 mph - 51f -
7:48pm 11 16 mph 1019.2mb 51f -
7:42pm 13 25 mph 1019.2mb 51f -
7:36pm 14 21 mph 1019.3mb 51f -
7:30pm 11 21 mph - 51f 60f
7:24pm 18 24 mph - 51f 60f
7:18pm 15 24 mph 1019.3mb 51f 60f
7:12pm 17 26 mph 1019.2mb 51f 60f
7:06pm 20 23 mph 1019.2mb 51f 61f
7:00pm  -  mph - 51f 61f
6:54pm  -  mph - 51f 61f
6:48pm 18 23 mph - - -
6:42pm 18 26 mph - - -
6:36pm 23 29 mph - - -
6:30pm 21 30 mph - 50f -
6:24pm 22 30 mph - 50f -
6:18pm 20 28 mph - 50f 61f
6:12pm 20 26 mph - 50f 61f
6:06pm 16 21 mph - 50f 62f
6:00pm  -  mph - 50f 62f
5:54pm  -  mph - 50f 62f
5:48pm 15 22 mph 1020mb - -
5:42pm 11 21 mph 1020mb - -
5:36pm 14 21 mph 1020mb - -
5:30pm 15 22 mph - 51f 62f
5:24pm 14 23 mph - 51f 62f
5:18pm  -  mph - 51f 62f
5:12pm  -  mph - 51f 62f
5:06pm  -  mph - 51f 62f
5:00pm  -  mph - 51f -
4:54pm  -  mph - 51f -
4:48pm  -  mph - 51f -
4:42pm  -  mph - 51f -
4:36pm  -  mph - 51f -
4:30pm 21 28 mph - 51f 62f
4:24pm 22 28 mph - 51f 62f
4:18pm 21 31 mph 1020.2mb 51f -
4:12pm 24 31 mph 1020.3mb 51f -
4:06pm 24 32 mph 1020.4mb 51f -
4:00pm  -  mph 1020.4mb 51f -
3:54pm  -  mph 1020.4mb 51f -
3:48pm  -  mph 1020.4mb 51f -
3:42pm  -  mph 1020.5mb 52f -
3:36pm  -  mph 1020.5mb 52f -
3:30pm 25 33 mph 1020.5mb 53f 62f
3:24pm 24 32 mph 1020.5mb 53f 62f
3:18pm 25 31 mph 1020.6mb 53f -
3:12pm 25 30 mph 1020.7mb 53f -
3:06pm 25 32 mph 1020.7mb 53f -
3:00pm  -  mph - 54f 62f
2:54pm  -  mph - 54f 62f
2:48pm 26 33 mph - 55f -
2:42pm 23 32 mph - 55f -
2:36pm 20 29 mph - 55f -
2:30pm 23 28 mph 1020.7mb 55f 62f
2:24pm 23 30 mph 1020.7mb 56f 62f
2:18pm 21 31 mph 1020.7mb 56f 62f
2:12pm 23 30 mph 1020.7mb 56f 62f
2:06pm 22 29 mph 1020.8mb 57f 62f
2:00pm 23 30 mph 1020.7mb 58f 62f
1:54pm 24 30 mph 1020.7mb 58f 62f
1:48pm 23 29 mph 1020.7mb 58f 62f
1:42pm 25 31 mph 1020.7mb 58f 62f
1:36pm 24 32 mph 1020.7mb 58f 62f
1:30pm 22 33 mph 1020.8mb 58f 62f
1:24pm 25 29 mph 1020.8mb 59f 62f
1:18pm 22 29 mph 1020.9mb 59f 62f
1:12pm 24 31 mph 1020.9mb 59f 62f
1:06pm 25 31 mph 1020.9mb 59f 62f
1:00pm 23 28 mph 1020.9mb 59f 62f
12:54pm 25 29 mph 1020.9mb 59f 62f
12:48pm 22 25 mph 1020.9mb 59f 62f
12:42pm 21 26 mph 1020.9mb 59f 62f
12:36pm 23 28 mph 1020.9mb 59f 62f
12:30pm 23 28 mph 1021mb 58f 62f
12:24pm 23 29 mph 1020.9mb 58f 62f
12:18pm 22 28 mph 1021mb 58f 62f
12:12pm 25 29 mph 1021mb 58f 62f
12:06pm 20 26 mph 1021.1mb 58f 62f
12:00pm 21 26 mph 1021.1mb 58f 62f
11:54am 22 26 mph 1021.3mb 58f 61f
11:48am 20 25 mph 1021.3mb 58f 62f
11:42am 18 24 mph 1021.3mb 58f 62f
11:36am 18 23 mph 1021.3mb 58f 62f
11:30am 18 23 mph 1021.4mb 58f 62f
11:24am 17 22 mph 1021.4mb 58f 62f
11:18am 15 22 mph 1021.4mb 57f 61f
11:12am 14 20 mph 1021.5mb 57f 61f
11:06am 16 21 mph 1021.6mb 56f 61f
11:00am 14 18 mph 1021.6mb 56f 61f
10:54am 13 21 mph 1021.5mb 55f 61f
10:48am 16 22 mph 1021.6mb 55f 61f
10:42am 17 21 mph 1021.5mb 55f 61f
10:36am 14 18 mph 1021.5mb 54f 61f
10:30am 16 20 mph 1021.4mb 54f 60f
10:24am 11 21 mph 1021.4mb 54f 61f
10:18am 10 15 mph 1021.4mb 53f 61f
10:12am 10 14 mph 1021.4mb 53f 61f
10:06am 6 10 mph 1021.4mb 53f 61f
10:00am 10 11 mph 1021.5mb 53f 60f
9:54am 8 11 mph 1021.6mb 53f 60f
9:48am 6 10 mph 1021.7mb 53f 60f
9:42am 3 9 mph 1021.8mb 53f 60f
9:36am 9 11 mph 1021.9mb 53f 60f
9:30am 8 10 mph 1021.9mb 53f 60f
9:24am 8 11 mph 1021.9mb 53f 60f
9:18am 8 13 mph 1021.8mb 53f 60f
9:12am 7 13 mph 1021.8mb 53f 60f
9:06am 6 8 mph 1021.8mb 53f 60f
9:00am 8 11 mph 1021.7mb 53f 60f
8:54am 7 11 mph 1021.7mb 53f 60f
8:48am 7 13 mph 1021.7mb 52f 60f
8:42am 10 13 mph 1021.7mb 52f 60f
8:36am 8 11 mph 1021.7mb 52f 59f
8:30am 7 11 mph 1021.7mb 53f 59f
8:24am 7 14 mph 1021.8mb 53f 59f
8:18am 8 13 mph 1021.8mb 53f 59f
8:12am 9 14 mph 1021.8mb 52f 59f
8:06am 9 13 mph 1021.9mb 52f 59f
8:00am 9 14 mph 1021.9mb 52f 59f
7:54am 6 11 mph 1021.9mb 52f 59f
7:48am 8 14 mph 1021.9mb 51f 59f
7:42am 8 15 mph 1021.6mb 51f 59f
7:36am 8 14 mph 1021.7mb 51f 59f
7:30am 7 13 mph 1021.9mb 51f 59f
7:24am 9 20 mph 1021.8mb 51f 59f
7:18am 10 14 mph 1021.8mb 51f 59f
7:12am 7 11 mph 1021.8mb 51f 59f
7:06am 3 6 mph 1021.8mb 51f 59f
7:00am 3 8 mph 1021.7mb 51f 58f
6:54am 6 11 mph 1021.6mb 51f 59f
6:48am 7 10 mph 1021.5mb 51f 59f
6:42am 7 14 mph 1021.4mb 51f 59f
6:36am 8 11 mph 1021.4mb 51f 59f
6:30am 7 9 mph 1021.3mb 51f 58f
6:24am 6 8 mph 1021.3mb 51f 58f
6:18am 5 8 mph 1021.3mb 51f 58f
6:12am 3 8 mph 1021.3mb 51f 58f
6:06am 5 8 mph 1021.2mb 51f 58f
6:00am 5 8 mph 1021.2mb 51f 58f
5:54am 3 6 mph 1021.2mb 51f 58f
5:48am 3 9 mph 1021.2mb 51f 58f
5:42am 6 14 mph 1021.1mb 51f 58f
5:36am 6 10 mph 1021.1mb 51f 58f
5:30am 5 8 mph 1021mb 51f 58f
5:24am 7 9 mph 1020.9mb 51f 59f
5:18am 6 9 mph 1020.9mb 51f 59f
5:12am 6 11 mph 1020.9mb 51f 59f
5:06am 5 8 mph 1020.9mb 51f 58f
5:00am 5 9 mph 1020.9mb 51f 58f
4:54am 5 8 mph 1020.9mb 51f 58f
4:48am 6 9 mph 1020.8mb 51f 58f
4:42am 7 10 mph 1020.9mb 51f 59f
4:36am 7 10 mph 1020.9mb 51f 58f
4:30am 8 10 mph 1020.9mb 52f 59f
4:24am 7 10 mph 1021mb 52f 59f
4:18am 6 8 mph 1020.9mb 52f 58f
4:12am 7 15 mph 1020.8mb 52f 59f
4:06am 6 10 mph 1020.8mb 53f 59f
4:00am 8 9 mph 1020.8mb 53f 59f
3:54am 6 13 mph 1020.8mb 53f 59f
3:48am 7 11 mph 1020.8mb 54f 59f
3:42am 5 8 mph 1020.8mb 54f 59f
3:36am 7 14 mph 1020.8mb 54f 59f
3:30am 10 14 mph 1020.8mb 54f 59f
3:24am 8 14 mph 1020.7mb 55f 59f
3:18am 9 15 mph 1020.8mb 55f 59f
3:12am 10 17 mph 1020.8mb 55f 59f
3:06am 6 11 mph 1020.9mb 55f 59f
3:00am 8 15 mph 1020.9mb 55f 59f
2:54am 7 13 mph 1020.9mb 56f 59f
2:48am 7 13 mph 1020.8mb 56f 59f
2:42am 7 13 mph 1020.8mb 56f 59f
2:36am 7 14 mph 1020.8mb 57f 59f
2:30am 6 14 mph 1020.7mb 57f 59f
2:24am 3 10 mph 1020.8mb 57f 59f
2:18am 7 16 mph 1020.7mb 57f 58f
2:12am 7 13 mph 1020.7mb 57f 58f
2:06am 6 13 mph 1020.7mb 57f 58f
2:00am 9 14 mph 1020.7mb 57f 58f
1:54am 8 13 mph 1020.6mb 57f 59f
1:48am 6 10 mph 1020.7mb 57f 59f
1:42am 6 13 mph 1020.6mb 57f 59f
1:36am 6 11 mph 1020.7mb 57f 59f
1:30am 5 10 mph 1020.7mb 57f 58f
1:24am 5 8 mph 1020.8mb 57f 58f
1:18am 6 13 mph 1020.8mb 57f 58f
1:12am 7 11 mph 1020.8mb 57f 58f
1:06am 7 11 mph 1020.8mb 57f 58f
1:00am 7 11 mph 1020.7mb 56f 58f
12:54am 6 11 mph 1020.7mb 56f 58f
12:48am 8 11 mph 1020.6mb 56f 59f
12:42am 7 10 mph 1020.6mb 56f 59f
12:36am 7 11 mph 1020.6mb 56f 59f
12:30am 9 11 mph 1020.6mb 56f 59f
12:24am 7 11 mph 1020.6mb 56f 59f
12:18am 8 11 mph 1020.6mb 56f 59f
12:12am 6 14 mph 1020.6mb 56f 59f
12:06am 8 13 mph 1020.6mb 56f 60f
12:00am 6 11 mph 1020.7mb 56f 60f
Mon 07/25 11:54pm 7 11 mph 1020.7mb 56f 59f
11:48pm 7 10 mph 1020.7mb 56f 59f
11:42pm 8 9 mph 1020.7mb 55f 58f
11:36pm 8 11 mph 1020.6mb 55f 59f
11:30pm 7 10 mph 1020.6mb 55f 60f
11:24pm 5 9 mph 1020.6mb 55f 60f
11:18pm 6 9 mph 1020.7mb 55f 60f
11:12pm 6 8 mph 1020.8mb 55f 59f
11:06pm 6 9 mph 1020.8mb 55f 59f
11:00pm 5 8 mph 1020.8mb 54f 58f
10:54pm 3 8 mph 1020.9mb 54f 57f
10:48pm 6 7 mph 1021mb 54f -
10:42pm 6 8 mph 1021mb 54f -
10:36pm 5 7 mph 1021mb 54f -
10:30pm 5 11 mph 1020.9mb 54f 58f
10:24pm 7 10 mph 1020.9mb 54f 58f
10:18pm 7 10 mph 1020.9mb 54f 60f
10:12pm 7 10 mph 1020.8mb 54f 61f
10:06pm 6 10 mph 1020.8mb 54f 61f
10:00pm 7 14 mph 1020.8mb 53f 61f
9:54pm 8 14 mph 1020.8mb 53f 61f
9:48pm 8 11 mph 1020.7mb 53f 61f
9:42pm 6 14 mph 1020.7mb 53f 61f
9:36pm 6 14 mph 1020.6mb 54f 61f
9:30pm 9 14 mph 1020.6mb 54f 61f
9:24pm 6 11 mph 1020.6mb 54f 61f
9:18pm 8 14 mph 1020.6mb 54f 61f
9:12pm 7 17 mph 1020.5mb 54f 61f
9:06pm 6 15 mph 1020.5mb 54f 61f
9:00pm 8 14 mph 1020.4mb 54f 61f
8:54pm 6 9 mph 1020.3mb 54f 61f
8:48pm 9 17 mph 1020.3mb 55f 61f
8:42pm 9 17 mph 1020.4mb 55f 60f
8:36pm 6 14 mph 1020.4mb 55f 60f
8:30pm 7 16 mph 1020.3mb 55f 61f
8:24pm 8 20 mph 1020.3mb 55f 60f
8:18pm 10 21 mph 1020.3mb 55f 60f
8:12pm 10 17 mph 1020.2mb 54f 60f
8:06pm 11 16 mph 1020.2mb 54f 60f
8:00pm 10 15 mph - 54f 60f
7:54pm 8 17 mph - 53f 60f
7:48pm 7 18 mph 1020mb - -
7:42pm 8 14 mph 1020.1mb - -
7:36pm 10 16 mph 1020.2mb - -
7:30pm 7 18 mph - 52f 60f
7:24pm 8 17 mph - 51f 60f
7:18pm 8 15 mph - 51f 60f
7:12pm 7 16 mph - 51f 61f
7:06pm 8 15 mph - 51f 60f
7:00pm 8 15 mph - 51f 60f
6:54pm 10 16 mph - 51f 60f
6:48pm 8 16 mph 1019.8mb 51f -
6:42pm 9 14 mph 1019.8mb 51f -
6:36pm 9 15 mph 1019.9mb 51f -
6:30pm 8 14 mph - 51f -
6:24pm 9 15 mph - 51f -
6:18pm 10 18 mph - 51f 61f
6:12pm 9 17 mph - 51f 61f
6:06pm 8 20 mph - 51f 61f
6:00pm 9 22 mph - 51f 61f
5:54pm 9 17 mph - 51f 61f
5:48pm 9 16 mph - - -